Terminal Aerodrome Forecast
Issued by NWS

Home | Current Version | Previous Version | Text Only | Print | Product List | Glossary On
Versions: 1 2 3 4 5 6 7 8 9 10 11 12 13 14 15 16 17 18 19 20 21 22 23
608
FTUS43 KLSX 271556 AAA
TAFUIN
TAF AMD
KUIN 271556Z 2716/2812 28014KT P6SM BKN025
     FM272200 27012KT P6SM SCT025
     FM272300 25007KT P6SM SCT150
     FM280300 VRB04KT P6SM BKN090=

USA.gov is the U.S. government's official web portal to all federal, state and local government web resources and services.